Time;durP1;ratioP1;P1;durP2;ratioP2;P2;SDS_P1;SDS_P2;PMS_P1;PMS_P2;Temp;Humidity;BMP_temperature;BMP_pressure;BME280_temperature;BME280_humidity;BME280_pressure;Samples;Min_cycle;Max_cycle;Signal;HPM_P1;HPM_P2
2024/01/14 00:00:50;;;;;;;22.90;13.20;;;;;;;-0.61;100.00;97796.24;136831;1276;22279;-78
2024/01/14 00:04:12;;;;;;;24.00;15.40;;;;;;;-0.59;100.00;97791.87;136940;1276;22545;-79
2024/01/14 00:07:15;;;;;;;20.10;13.40;;;;;;;-0.58;100.00;97788.16;136997;1276;22251;-77
2024/01/14 00:10:20;;;;;;;26.00;14.90;;;;;;;-0.59;100.00;97782.14;136828;1276;22556;-76
2024/01/14 00:13:22;;;;;;;23.90;16.00;;;;;;;-0.57;100.00;97782.38;136808;1276;22681;-77
2024/01/14 00:16:25;;;;;;;25.50;14.90;;;;;;;-0.58;100.00;97775.50;137270;1276;22629;-76
2024/01/14 00:19:27;;;;;;;32.50;16.70;;;;;;;-0.53;100.00;97772.10;136847;1276;22539;-77
2024/01/14 00:22:30;;;;;;;21.10;13.80;;;;;;;-0.52;100.00;97767.55;136868;1276;22288;-77
2024/01/14 00:25:32;;;;;;;25.20;13.50;;;;;;;-0.51;100.00;97763.98;137104;1276;22591;-77
2024/01/14 00:28:35;;;;;;;23.30;14.10;;;;;;;-0.48;100.00;97761.90;136846;1276;22594;-76
2024/01/14 00:31:37;;;;;;;22.10;13.80;;;;;;;-0.45;100.00;97761.85;136782;1276;22196;-77
2024/01/14 00:34:40;;;;;;;24.80;15.20;;;;;;;-0.43;100.00;97759.70;137048;1276;22735;-77
2024/01/14 00:37:42;;;;;;;23.20;15.20;;;;;;;-0.41;100.00;97756.35;137165;1276;22179;-77
2024/01/14 00:40:45;;;;;;;22.50;14.10;;;;;;;-0.41;100.00;97751.56;136932;1264;22691;-77
2024/01/14 00:43:47;;;;;;;25.20;15.10;;;;;;;-0.44;100.00;97744.42;136818;1276;24761;-78
2024/01/14 00:46:49;;;;;;;25.90;15.70;;;;;;;-0.48;100.00;97735.73;137224;1276;22224;-78
2024/01/14 00:49:52;;;;;;;25.20;15.20;;;;;;;-0.48;100.00;97736.43;136860;1276;22157;-76
2024/01/14 00:52:56;;;;;;;23.30;13.80;;;;;;;-0.47;100.00;97730.98;136849;1276;22292;-76
2024/01/14 00:55:58;;;;;;;24.70;16.20;;;;;;;-0.48;100.00;97729.43;137195;1276;22230;-76
2024/01/14 00:59:00;;;;;;;25.40;15.20;;;;;;;-0.46;100.00;97719.42;136870;1276;22518;-76
2024/01/14 01:02:03;;;;;;;28.70;16.20;;;;;;;-0.44;100.00;97724.09;136958;1276;22470;-76
2024/01/14 01:05:05;;;;;;;24.50;15.00;;;;;;;-0.47;100.00;97717.98;136901;1276;24191;-77
2024/01/14 01:08:08;;;;;;;26.10;15.60;;;;;;;-0.49;100.00;97710.57;136875;1276;22584;-77
2024/01/14 01:11:10;;;;;;;28.40;16.70;;;;;;;-0.52;100.00;97705.54;136943;1276;22209;-76
2024/01/14 01:14:14;;;;;;;23.60;15.20;;;;;;;-0.51;100.00;97700.23;136811;1276;24225;-78
2024/01/14 01:17:16;;;;;;;27.70;16.70;;;;;;;-0.50;100.00;97693.62;137216;1276;22222;-76
2024/01/14 01:20:18;;;;;;;28.60;15.40;;;;;;;-0.50;100.00;97692.95;136944;1276;22424;-77
2024/01/14 01:23:21;;;;;;;22.30;15.60;;;;;;;-0.48;100.00;97688.40;136976;1276;22135;-78
2024/01/14 01:26:24;;;;;;;26.70;15.80;;;;;;;-0.49;100.00;97680.52;137166;1276;22690;-77
2024/01/14 01:29:26;;;;;;;29.50;16.80;;;;;;;-0.53;100.00;97675.75;136996;1276;22301;-78
2024/01/14 01:32:29;;;;;;;27.20;17.40;;;;;;;-0.58;100.00;97675.06;136959;1276;22977;-77
2024/01/14 01:35:31;;;;;;;26.50;16.30;;;;;;;-0.56;100.00;97670.34;137004;1276;22675;-77
2024/01/14 01:38:34;;;;;;;27.30;16.90;;;;;;;-0.57;100.00;97659.19;137116;1276;22646;-78
2024/01/14 01:41:36;;;;;;;25.10;17.20;;;;;;;-0.62;100.00;97658.32;136798;1276;22145;-76
2024/01/14 01:44:39;;;;;;;29.90;18.70;;;;;;;-0.67;100.00;97651.68;136869;1276;23020;-78
2024/01/14 01:47:41;;;;;;;27.90;16.70;;;;;;;-0.69;100.00;97649.89;137187;1276;22228;-78
2024/01/14 01:50:43;;;;;;;29.10;16.30;;;;;;;-0.70;100.00;97650.86;136881;1276;22157;-76
2024/01/14 01:53:46;;;;;;;26.30;17.00;;;;;;;-0.69;100.00;97647.15;136815;1276;22359;-77
2024/01/14 01:56:48;;;;;;;31.40;18.60;;;;;;;-0.67;100.00;97646.20;137168;1276;22638;-76
2024/01/14 01:59:51;;;;;;;29.30;18.20;;;;;;;-0.69;100.00;97647.16;136932;1264;22178;-76
2024/01/14 02:02:53;;;;;;;28.50;17.60;;;;;;;-0.70;100.00;97650.00;136859;1276;22637;-77
2024/01/14 02:05:56;;;;;;;27.50;16.60;;;;;;;-0.70;100.00;97647.79;136892;1276;22555;-77
2024/01/14 02:08:58;;;;;;;27.50;17.70;;;;;;;-0.70;100.00;97643.02;137181;1276;22609;-76
2024/01/14 02:12:01;;;;;;;27.60;18.10;;;;;;;-0.72;100.00;97640.02;136858;1276;22646;-78
2024/01/14 02:15:03;;;;;;;28.30;17.40;;;;;;;-0.71;100.00;97627.23;136989;1276;22507;-78
2024/01/14 02:18:06;;;;;;;26.30;17.40;;;;;;;-0.71;100.00;97616.65;137006;1276;22309;-78
2024/01/14 02:21:08;;;;;;;26.50;16.20;;;;;;;-0.73;100.00;97616.09;136869;1276;22557;-76
2024/01/14 02:24:11;;;;;;;27.70;17.10;;;;;;;-0.74;100.00;97614.33;136899;1276;22262;-76
2024/01/14 02:27:13;;;;;;;25.10;16.60;;;;;;;-0.70;100.00;97606.29;137206;1276;22613;-76
2024/01/14 02:30:16;;;;;;;26.20;16.40;;;;;;;-0.69;100.00;97607.02;136825;1276;22328;-76
2024/01/14 02:33:18;;;;;;;26.90;16.70;;;;;;;-0.69;100.00;97603.93;137008;1276;22267;-76
2024/01/14 02:36:21;;;;;;;24.50;16.50;;;;;;;-0.70;100.00;97597.59;137008;1276;22541;-76
2024/01/14 02:39:23;;;;;;;27.60;16.60;;;;;;;-0.71;100.00;97599.09;137128;1276;22580;-77
2024/01/14 02:42:26;;;;;;;23.70;16.30;;;;;;;-0.70;100.00;97591.25;136937;1276;22158;-78
2024/01/14 02:45:28;;;;;;;28.00;15.90;;;;;;;-0.70;100.00;97584.77;136997;1276;22714;-77
2024/01/14 02:48:31;;;;;;;26.40;16.40;;;;;;;-0.67;100.00;97577.70;137191;1276;22169;-77
2024/01/14 02:51:34;;;;;;;22.90;15.70;;;;;;;-0.62;100.00;97576.84;136901;1276;22209;-78
2024/01/14 02:54:36;;;;;;;27.40;17.20;;;;;;;-0.56;100.00;97573.80;137055;1276;22229;-77
2024/01/14 02:57:39;;;;;;;29.80;17.10;;;;;;;-0.54;100.00;97569.91;137065;1276;22589;-77
2024/01/14 03:00:41;;;;;;;24.40;14.90;;;;;;;-0.53;100.00;97568.94;136843;1276;22140;-78
2024/01/14 03:03:44;;;;;;;24.60;15.60;;;;;;;-0.53;100.00;97563.48;137074;1276;22604;-76
2024/01/14 03:06:46;;;;;;;21.80;16.10;;;;;;;-0.51;100.00;97557.73;136950;1276;24301;-77
2024/01/14 03:09:49;;;;;;;26.50;16.50;;;;;;;-0.49;100.00;97555.60;137234;1276;22723;-76
2024/01/14 03:12:51;;;;;;;26.70;17.10;;;;;;;-0.47;100.00;97548.64;136974;1276;22696;-76
2024/01/14 03:15:54;;;;;;;23.90;16.60;;;;;;;-0.46;100.00;97545.77;136990;1276;22249;-77
2024/01/14 03:18:56;;;;;;;27.70;17.30;;;;;;;-0.47;100.00;97537.72;137122;1276;22163;-76
2024/01/14 03:21:58;;;;;;;23.80;16.90;;;;;;;-0.48;100.00;97537.14;136869;1276;22633;-78
2024/01/14 03:25:04;;;;;;;21.80;15.30;;;;;;;-0.50;100.00;97529.91;136886;1276;22364;-78
2024/01/14 03:28:06;;;;;;;26.20;16.70;;;;;;;-0.52;100.00;97522.65;137075;1276;22452;-78
2024/01/14 03:31:09;;;;;;;26.60;17.70;;;;;;;-0.54;100.00;97522.77;136930;1276;22203;-78
2024/01/14 03:34:11;;;;;;;26.70;17.60;;;;;;;-0.56;100.00;97514.50;136977;1276;22226;-76
2024/01/14 03:37:13;;;;;;;30.60;18.80;;;;;;;-0.56;100.00;97513.45;137026;1276;22185;-76
2024/01/14 03:40:16;;;;;;;27.20;18.10;;;;;;;-0.56;100.00;97509.89;137067;1276;22234;-76
2024/01/14 03:43:18;;;;;;;26.70;17.50;;;;;;;-0.55;100.00;97510.60;136993;1276;22197;-77
2024/01/14 03:46:21;;;;;;;28.00;19.30;;;;;;;-0.58;100.00;97506.06;136989;1276;22224;-77
2024/01/14 03:49:23;;;;;;;26.80;17.10;;;;;;;-0.59;100.00;97503.27;137150;1276;22822;-77
2024/01/14 03:52:26;;;;;;;27.00;17.90;;;;;;;-0.67;100.00;97506.98;136922;1273;22385;-77
2024/01/14 03:55:28;;;;;;;22.90;16.80;;;;;;;-0.72;100.00;97504.39;136965;1276;22608;-76
2024/01/14 03:58:30;;;;;;;28.10;19.60;;;;;;;1.08;100.00;97493.89;137129;1276;22180;-76
2024/01/14 04:01:33;;;;;;;29.00;19.60;;;;;;;3.56;100.00;97478.69;136990;1276;22189;-74
2024/01/14 04:04:35;;;;;;;29.90;19.60;;;;;;;6.03;100.00;97476.61;136995;1276;22261;-75
2024/01/14 04:07:38;;;;;;;24.30;17.70;;;;;;;6.98;100.00;97470.34;136828;1276;22556;-76
2024/01/14 04:10:40;;;;;;;25.80;18.30;;;;;;;8.13;100.00;97462.25;137116;1254;22233;-75
2024/01/14 04:13:43;;;;;;;22.30;16.00;;;;;;;8.99;100.00;97456.94;136846;1276;22238;-75
2024/01/14 04:16:45;;;;;;;22.90;17.50;;;;;;;9.03;100.00;97454.15;136983;1276;22211;-76
2024/01/14 04:19:48;;;;;;;19.90;15.90;;;;;;;9.02;100.00;97450.16;137103;1276;22194;-76
2024/01/14 04:22:50;;;;;;;20.50;13.80;;;;;;;9.48;100.00;97443.68;136978;1276;22246;-77
2024/01/14 04:25:53;;;;;;;18.50;14.10;;;;;;;9.92;100.00;97439.04;136979;1276;22295;-76
2024/01/14 04:28:55;;;;;;;18.30;12.30;;;;;;;10.44;100.00;97441.59;137216;1270;22285;-76
2024/01/14 04:31:57;;;;;;;16.70;13.00;;;;;;;10.61;100.00;97437.25;136978;1276;22823;-76
2024/01/14 04:35:00;;;;;;;16.90;11.90;;;;;;;11.13;100.00;97437.85;136823;1276;22350;-76
2024/01/14 04:38:02;;;;;;;20.60;12.10;;;;;;;11.45;100.00;97424.91;137025;1276;22357;-76
2024/01/14 04:41:05;;;;;;;18.50;12.10;;;;;;;11.67;100.00;97447.41;137127;1276;22261;-77
2024/01/14 04:44:07;;;;;;;16.40;12.40;;;;;;;11.66;100.00;97440.45;136813;1276;22286;-76
2024/01/14 04:47:10;;;;;;;12.40;11.10;;;;;;;11.94;100.00;97435.16;136988;1270;22307;-76
2024/01/14 04:50:12;;;;;;;12.90;11.20;;;;;;;12.16;100.00;97432.90;137133;1276;22559;-76
2024/01/14 04:53:15;;;;;;;12.50;10.10;;;;;;;12.70;100.00;97430.02;136931;1276;22207;-76
2024/01/14 04:56:17;;;;;;;13.30;10.00;;;;;;;11.92;100.00;97428.21;136920;1276;22541;-76
2024/01/14 04:59:20;;;;;;;11.60;9.50;;;;;;;11.56;100.00;97423.01;137025;1276;23054;-76
2024/01/14 05:02:22;;;;;;;10.70;9.10;;;;;;;12.03;100.00;97417.61;136895;1276;22556;-76
2024/01/14 05:05:24;;;;;;;10.80;9.30;;;;;;;11.84;100.00;97422.75;136976;1276;22298;-76
2024/01/14 05:08:27;;;;;;;13.20;9.90;;;;;;;10.55;100.00;97425.30;137148;1276;22283;-77
2024/01/14 05:11:29;;;;;;;10.70;8.50;;;;;;;10.92;100.00;97417.73;137038;1276;22567;-76
2024/01/14 05:14:32;;;;;;;12.90;10.90;;;;;;;11.02;100.00;97419.86;136905;1276;22194;-76
2024/01/14 05:17:34;;;;;;;12.10;9.70;;;;;;;10.76;100.00;97408.88;136905;1276;22249;-77
2024/01/14 05:20:37;;;;;;;13.50;8.70;;;;;;;11.15;100.00;97413.97;136979;1267;22259;-77
2024/01/14 05:23:39;;;;;;;14.90;10.00;;;;;;;11.12;100.00;97414.52;136956;1276;22208;-77
2024/01/14 05:26:42;;;;;;;10.40;8.70;;;;;;;11.31;100.00;97415.52;136794;1276;22550;-77
2024/01/14 05:29:44;;;;;;;17.00;10.60;;;;;;;10.30;73.21;97423.42;137138;1276;22251;-77
2024/01/14 05:32:47;;;;;;;14.40;9.00;;;;;;;10.12;80.00;97422.55;134878;1275;2896982;-76
2024/01/14 05:35:49;;;;;;;16.60;9.80;;;;;;;10.77;85.21;97416.50;137244;1275;22493;-76
2024/01/14 05:38:52;;;;;;;14.60;10.40;;;;;;;11.76;72.56;97416.97;137134;1275;23306;-76
2024/01/14 05:41:54;;;;;;;12.90;8.30;;;;;;;11.23;72.56;97413.70;137231;1275;22597;-76
2024/01/14 05:44:56;;;;;;;11.20;9.00;;;;;;;11.59;71.87;97402.74;137089;1276;22155;-75
2024/01/14 05:47:59;;;;;;;22.80;11.90;;;;;;;12.33;73.80;97397.37;136952;1275;22178;-76
2024/01/14 05:51:03;;;;;;;14.20;9.00;;;;;;;12.78;67.16;97400.36;137240;1276;22193;-75
2024/01/14 05:54:06;;;;;;;16.90;11.00;;;;;;;12.85;66.01;97404.59;137043;1275;22195;-76
2024/01/14 05:57:08;;;;;;;11.60;8.90;;;;;;;12.82;64.29;97405.18;137114;1276;22200;-78
2024/01/14 06:00:14;;;;;;;14.30;9.70;;;;;;;12.53;61.38;97403.98;137167;1275;22548;-83
2024/01/14 06:03:16;;;;;;;12.60;8.90;;;;;;;12.29;61.34;97406.00;137144;1276;23762;-82
2024/01/14 06:06:19;;;;;;;20.80;10.50;;;;;;;12.13;66.39;97405.73;137130;1272;22259;-83
2024/01/14 06:09:21;;;;;;;20.70;10.30;;;;;;;12.72;61.07;97405.02;136927;1253;22292;-81
2024/01/14 06:12:24;;;;;;;14.30;10.20;;;;;;;10.07;53.89;97412.53;137327;1275;22220;-80
2024/01/14 06:15:26;;;;;;;12.90;8.20;;;;;;;7.14;59.05;97420.33;137059;1275;22412;-81
2024/01/14 06:18:29;;;;;;;16.00;9.80;;;;;;;5.16;64.35;97428.14;137086;1276;22214;-80
2024/01/14 06:21:31;;;;;;;17.80;9.80;;;;;;;3.93;69.42;97426.54;136972;1275;22229;-80
2024/01/14 06:24:34;;;;;;;15.00;10.00;;;;;;;2.92;77.03;97429.41;137087;1275;22599;-80
2024/01/14 06:27:36;;;;;;;13.90;10.90;;;;;;;2.27;80.72;97432.55;137007;1275;22567;-80
2024/01/14 06:30:38;;;;;;;12.60;9.60;;;;;;;1.87;82.99;97427.52;137189;1275;22248;-80
2024/01/14 06:33:41;;;;;;;15.40;11.00;;;;;;;1.47;85.57;97429.47;137026;1275;22890;-80
2024/01/14 06:36:43;;;;;;;13.10;11.10;;;;;;;1.91;94.72;97418.59;137100;1275;22310;-85
2024/01/14 06:39:46;;;;;;;13.70;10.60;;;;;;;5.87;100.00;97405.14;137088;1272;25322;-84
2024/01/14 06:42:48;;;;;;;11.50;9.90;;;;;;;8.82;100.00;97410.99;137117;1275;22526;-83
2024/01/14 06:45:51;;;;;;;12.60;9.20;;;;;;;10.29;100.00;97407.77;137170;1275;22260;-83
2024/01/14 06:48:54;;;;;;;9.70;8.50;;;;;;;11.38;100.00;97406.36;137145;1275;22681;-84
2024/01/14 06:51:56;;;;;;;9.40;7.90;;;;;;;12.21;93.45;97403.83;137285;1275;22342;-81
2024/01/14 06:54:59;;;;;;;10.50;8.40;;;;;;;10.77;57.91;97415.46;137031;1275;22212;-81
2024/01/14 06:58:01;;;;;;;8.60;7.80;;;;;;;7.50;61.46;97419.55;136982;1268;22229;-82
2024/01/14 07:01:04;;;;;;;9.00;7.90;;;;;;;5.50;66.23;97422.13;137189;1275;22161;-81
2024/01/14 07:04:07;;;;;;;11.40;8.20;;;;;;;4.24;71.46;97425.80;137036;1275;22199;-81
2024/01/14 07:07:10;;;;;;;9.50;8.10;;;;;;;3.27;76.04;97426.81;136923;1275;22586;-81
2024/01/14 07:10:12;;;;;;;11.30;6.90;;;;;;;2.69;78.09;97430.00;137156;1275;22589;-79
2024/01/14 07:13:14;;;;;;;16.30;9.00;;;;;;;2.35;81.55;97430.14;137221;1275;22282;-81
2024/01/14 07:16:17;;;;;;;10.10;8.10;;;;;;;2.06;83.25;97430.72;137012;1275;22538;-81
2024/01/14 07:19:19;;;;;;;12.20;8.80;;;;;;;1.85;85.44;97431.77;137055;1275;22583;-82
2024/01/14 07:22:22;;;;;;;12.10;8.40;;;;;;;1.74;97.36;97433.38;137274;1269;22273;-81
2024/01/14 07:25:25;;;;;;;12.30;8.80;;;;;;;1.69;98.84;97441.50;137069;1275;22258;-81
2024/01/14 07:28:27;;;;;;;13.80;10.10;;;;;;;1.48;94.32;97441.98;137077;1275;22234;-82
2024/01/14 07:31:30;;;;;;;14.10;10.30;;;;;;;1.36;95.57;97445.45;137179;1275;22280;-81
2024/01/14 07:34:32;;;;;;;14.30;9.40;;;;;;;1.46;94.22;97444.34;136968;1275;22180;-82
2024/01/14 07:37:35;;;;;;;21.10;12.00;;;;;;;1.33;93.80;97447.79;137077;1275;22676;-82
2024/01/14 07:40:37;;;;;;;18.10;10.50;;;;;;;1.29;93.57;97454.37;137096;1275;22540;-81
2024/01/14 07:43:40;;;;;;;20.80;11.20;;;;;;;1.28;93.99;97455.21;137144;1275;22780;-82
2024/01/14 07:46:42;;;;;;;21.00;10.30;;;;;;;1.27;94.37;97452.95;137239;1275;22440;-80
2024/01/14 07:49:48;;;;;;;12.50;10.00;;;;;;;1.24;95.21;97443.62;137110;1275;22739;-80
2024/01/14 07:52:50;;;;;;;12.00;9.50;;;;;;;1.36;97.78;97441.69;137064;1275;22568;-80
2024/01/14 07:55:53;;;;;;;22.90;12.40;;;;;;;2.45;99.57;97443.61;137114;1275;22586;-80
2024/01/14 07:58:55;;;;;;;13.70;10.70;;;;;;;3.73;100.00;97444.83;137133;1275;22288;-80
2024/01/14 08:01:58;;;;;;;17.90;10.40;;;;;;;3.01;100.00;97444.55;137306;1275;22401;-80
2024/01/14 08:05:00;;;;;;;10.20;8.40;;;;;;;2.58;100.00;97447.46;136990;1275;22422;-80
2024/01/14 08:08:03;;;;;;;15.80;10.10;;;;;;;2.23;100.00;97442.41;136980;1275;22418;-80
2024/01/14 08:11:05;;;;;;;11.00;9.80;;;;;;;1.97;100.00;97448.52;137193;1275;22547;-81
2024/01/14 08:14:08;;;;;;;16.10;10.40;;;;;;;1.88;100.00;97454.15;137005;1275;22222;-81
2024/01/14 08:17:11;;;;;;;12.80;9.50;;;;;;;1.79;100.00;97452.57;137008;1275;22559;-81
2024/01/14 08:20:14;;;;;;;12.30;9.90;;;;;;;1.73;100.00;97448.44;136899;1275;22591;-81
2024/01/14 08:23:16;;;;;;;19.40;10.90;;;;;;;1.64;100.00;97442.21;137330;1275;22174;-81
2024/01/14 08:26:19;;;;;;;15.40;10.00;;;;;;;1.61;100.00;97442.66;137017;1275;22689;-81
2024/01/14 08:29:21;;;;;;;20.60;12.50;;;;;;;1.55;100.00;97440.80;136989;1275;22325;-84
2024/01/14 08:32:24;;;;;;;15.20;11.60;;;;;;;3.91;100.00;97431.57;137223;1267;22296;-83
2024/01/14 08:35:26;;;;;;;21.60;10.90;;;;;;;7.01;100.00;97427.93;137063;1275;22774;-83
2024/01/14 08:38:29;;;;;;;13.70;9.60;;;;;;;8.75;100.00;97429.03;136926;1274;22583;-84
2024/01/14 08:41:31;;;;;;;16.70;10.80;;;;;;;10.73;100.00;97419.50;137297;1275;22603;-84
2024/01/14 08:44:36;;;;;;;19.00;11.90;;;;;;;12.19;100.00;97423.08;137078;1275;22311;-85
2024/01/14 08:47:39;;;;;;;15.50;9.30;;;;;;;12.62;86.92;97419.70;137141;1275;22286;-85
2024/01/14 08:50:42;;;;;;;9.30;8.10;;;;;;;12.32;72.41;97420.27;137215;1275;22583;-85
2024/01/14 08:53:45;;;;;;;11.70;8.20;;;;;;;13.34;73.16;97414.75;137288;1275;22975;-85
2024/01/14 08:56:47;;;;;;;11.10;8.50;;;;;;;13.66;63.67;97426.14;137330;1275;22218;-85
2024/01/14 08:59:50;;;;;;;13.90;8.50;;;;;;;13.34;66.46;97419.34;137025;1275;22243;-85
2024/01/14 09:02:52;;;;;;;13.80;9.50;;;;;;;14.29;66.63;97421.68;137283;1275;22211;-84
2024/01/14 09:05:54;;;;;;;12.00;8.10;;;;;;;14.50;64.35;97422.02;137025;1276;22256;-84
2024/01/14 09:08:57;;;;;;;9.90;7.80;;;;;;;14.48;61.27;97426.60;137122;1275;22509;-83
2024/01/14 09:11:59;;;;;;;18.20;9.80;;;;;;;14.46;62.54;97428.77;137358;1275;22223;-84
2024/01/14 09:15:03;;;;;;;12.70;7.30;;;;;;;15.33;62.42;97428.47;137135;1275;22258;-85
2024/01/14 09:18:05;;;;;;;10.70;7.20;;;;;;;15.12;54.81;97431.54;137014;1269;22192;-84
2024/01/14 09:21:08;;;;;;;12.80;7.20;;;;;;;14.98;59.25;97434.93;137197;1272;24200;-84
2024/01/14 09:24:10;;;;;;;13.60;9.30;;;;;;;15.22;55.54;97437.56;137340;1275;22774;-85
2024/01/14 09:27:13;;;;;;;15.40;8.40;;;;;;;14.21;51.13;97444.21;137180;1272;22255;-85
2024/01/14 09:30:16;;;;;;;16.00;7.20;;;;;;;11.90;50.72;97446.83;137142;1275;22307;-83
2024/01/14 09:33:18;;;;;;;8.10;6.40;;;;;;;9.21;54.33;97454.16;137279;1276;22743;-81
2024/01/14 09:36:20;;;;;;;20.30;8.90;;;;;;;7.18;59.84;97456.38;137064;1275;22953;-81
2024/01/14 09:39:23;;;;;;;9.70;6.90;;;;;;;6.24;64.46;97457.48;136992;1275;22805;-84
2024/01/14 09:42:25;;;;;;;7.20;5.30;;;;;;;5.24;67.16;97452.39;137188;1276;22170;-84
2024/01/14 09:45:28;;;;;;;9.00;5.90;;;;;;;4.38;70.38;97448.23;136988;1276;22347;-84
2024/01/14 09:48:30;;;;;;;11.30;5.90;;;;;;;3.75;74.70;97445.89;136999;1275;22395;-84
2024/01/14 09:51:33;;;;;;;12.30;6.90;;;;;;;3.22;78.13;97446.15;137142;1275;22552;-84
2024/01/14 09:54:36;;;;;;;14.70;7.20;;;;;;;2.86;79.14;97449.09;137126;1276;22422;-84
2024/01/14 09:57:38;;;;;;;11.10;8.70;;;;;;;2.69;80.60;97447.55;137138;1275;22614;-84
2024/01/14 10:00:41;;;;;;;10.70;8.20;;;;;;;2.57;81.68;97446.23;137010;1275;22578;-83
2024/01/14 10:03:43;;;;;;;12.00;8.70;;;;;;;2.48;83.02;97446.72;137289;1275;22266;-81
2024/01/14 10:06:46;;;;;;;14.00;7.70;;;;;;;2.47;83.44;97437.61;137007;1275;22562;-83
2024/01/14 10:09:48;;;;;;;21.60;7.70;;;;;;;2.48;84.54;97435.39;137147;1275;22926;-83
2024/01/14 10:12:52;;;;;;;15.80;8.00;;;;;;;2.41;85.53;97439.88;136938;1275;22246;-83
2024/01/14 10:15:54;;;;;;;13.60;8.50;;;;;;;2.37;85.98;97438.08;137063;1275;22211;-82
2024/01/14 10:18:57;;;;;;;15.20;8.90;;;;;;;2.34;86.52;97439.75;137052;1275;22445;-82
2024/01/14 10:22:00;;;;;;;14.10;8.50;;;;;;;2.38;86.81;97440.16;137310;1275;22541;-82
2024/01/14 10:25:03;;;;;;;23.00;9.70;;;;;;;2.46;87.25;97434.83;137197;1275;22241;-82
2024/01/14 10:28:05;;;;;;;21.20;8.80;;;;;;;2.39;87.04;97432.79;137020;1275;22325;-84
2024/01/14 10:31:08;;;;;;;18.50;9.10;;;;;;;2.46;87.12;97431.23;137058;1272;22565;-83
2024/01/14 10:34:10;;;;;;;20.60;10.40;;;;;;;2.58;86.55;97430.46;137305;1269;22207;-83
2024/01/14 10:37:13;;;;;;;15.40;8.40;;;;;;;2.62;87.45;97427.82;137068;1275;22675;-83
2024/01/14 10:40:15;;;;;;;12.90;7.90;;;;;;;2.59;87.13;97424.64;136988;1275;22629;-83
2024/01/14 10:43:17;;;;;;;18.10;10.50;;;;;;;2.47;87.04;97425.93;137306;1275;22408;-83
2024/01/14 10:46:22;;;;;;;16.60;9.10;;;;;;;2.45;88.96;97428.45;136989;1275;22285;-83
2024/01/14 10:49:25;;;;;;;;;;;;;;;2.41;88.69;97420.99;137091;1275;22959;-85
2024/01/14 10:52:27;;;;;;;16.10;8.20;;;;;;;2.44;89.45;97423.48;137164;1275;22542;-83
2024/01/14 10:55:30;;;;;;;21.00;10.30;;;;;;;2.40;89.17;97421.84;137070;1275;22345;-84
2024/01/14 10:58:35;;;;;;;18.70;8.40;;;;;;;2.53;89.42;97425.54;136967;1275;22270;-85
2024/01/14 11:01:38;;;;;;;14.20;8.50;;;;;;;2.70;88.70;97415.61;136924;1275;22595;-84
2024/01/14 11:04:40;;;;;;;13.30;8.10;;;;;;;2.82;87.64;97410.86;137152;1275;22737;-84
2024/01/14 11:07:43;;;;;;;15.30;8.40;;;;;;;2.77;87.82;97415.23;137015;1275;22850;-85
2024/01/14 11:10:45;;;;;;;12.80;7.30;;;;;;;2.75;88.84;97414.48;137068;1275;22248;-85
2024/01/14 11:13:49;;;;;;;14.80;8.60;;;;;;;2.77;89.44;97409.73;137291;1275;22187;-84
2024/01/14 11:16:51;;;;;;;14.00;9.00;;;;;;;2.82;88.97;97401.23;136831;1275;22103;-84
2024/01/14 11:19:54;;;;;;;17.10;8.80;;;;;;;2.92;87.96;97396.10;137141;1275;22293;-85
2024/01/14 11:22:56;;;;;;;17.80;9.60;;;;;;;2.90;87.76;97400.52;137179;1275;22303;-84
2024/01/14 11:25:58;;;;;;;14.40;7.60;;;;;;;2.89;87.95;97399.30;136901;1275;22240;-84
2024/01/14 11:29:01;;;;;;;10.50;6.70;;;;;;;2.74;89.56;97398.17;136986;1275;22270;-84
2024/01/14 11:32:04;;;;;;;14.90;8.30;;;;;;;2.47;91.26;97399.83;136973;1275;23019;-84
2024/01/14 11:35:06;;;;;;;16.50;8.90;;;;;;;2.40;93.18;97398.13;137232;1275;22143;-84
2024/01/14 11:38:09;;;;;;;19.90;9.50;;;;;;;2.30;93.27;97398.28;136726;1276;22191;-84
2024/01/14 11:41:11;;;;;;;12.40;8.00;;;;;;;2.19;94.46;97392.38;136849;1276;22244;-84
2024/01/14 11:44:14;;;;;;;14.40;8.50;;;;;;;2.04;96.01;97395.30;137309;1275;22192;-85
2024/01/14 11:47:16;;;;;;;15.70;9.50;;;;;;;3.58;100.00;97393.23;136955;1275;22272;-85
2024/01/14 11:50:19;;;;;;;12.70;7.80;;;;;;;7.52;100.00;97377.55;136968;1275;23169;-84
2024/01/14 11:53:22;;;;;;;18.20;9.90;;;;;;;10.35;100.00;97377.42;137345;1276;22402;-86
2024/01/14 11:56:24;;;;;;;18.70;11.20;;;;;;;12.07;100.00;97382.47;136977;1275;22261;-86
2024/01/14 11:59:27;;;;;;;12.70;8.30;;;;;;;12.92;84.02;97381.77;136918;1275;22409;-84
2024/01/14 12:02:29;;;;;;;17.20;9.60;;;;;;;10.63;59.20;97386.09;137114;1275;22559;-83
2024/01/14 12:05:32;;;;;;;14.00;7.80;;;;;;;8.02;63.50;97394.33;136993;1276;22263;-84
2024/01/14 12:08:34;;;;;;;14.20;7.60;;;;;;;6.29;68.20;97398.23;136966;1275;22345;-84
2024/01/14 12:11:36;;;;;;;16.50;9.00;;;;;;;5.40;71.17;97403.75;136755;1276;25403;-84
2024/01/14 12:14:39;;;;;;;13.50;7.50;;;;;;;4.69;73.93;97402.98;137203;1275;22304;-83
2024/01/14 12:17:41;;;;;;;11.40;7.30;;;;;;;4.03;76.16;97409.83;137038;1264;22469;-83
2024/01/14 12:20:44;;;;;;;10.30;7.20;;;;;;;3.55;78.55;97407.54;136986;1275;22218;-84
2024/01/14 12:23:46;;;;;;;16.00;7.50;;;;;;;3.30;80.28;97410.02;137228;1275;22248;-84
2024/01/14 12:26:49;;;;;;;16.00;8.70;;;;;;;3.04;81.07;97411.79;136998;1275;22158;-83
2024/01/14 12:29:51;;;;;;;12.50;7.30;;;;;;;2.83;81.82;97412.44;136867;1275;22545;-84
2024/01/14 12:32:53;;;;;;;12.90;7.10;;;;;;;2.65;83.40;97412.60;137134;1275;22568;-83
2024/01/14 12:35:56;;;;;;;12.00;7.70;;;;;;;2.50;85.06;97417.74;137175;1275;22658;-83
2024/01/14 12:38:59;;;;;;;16.00;7.90;;;;;;;2.47;84.60;97417.86;137167;1275;22568;-83
2024/01/14 12:42:01;;;;;;;17.30;8.80;;;;;;;2.53;84.72;97417.80;137372;1275;22555;-83
2024/01/14 12:45:04;;;;;;;15.00;8.60;;;;;;;2.51;84.80;97414.52;136994;1276;22336;-83
2024/01/14 12:48:06;;;;;;;19.50;9.60;;;;;;;2.43;85.54;97408.34;137149;1275;22256;-83
2024/01/14 12:51:09;;;;;;;15.10;7.50;;;;;;;2.34;85.48;97412.61;136988;1275;22675;-83
2024/01/14 12:54:11;;;;;;;17.40;7.10;;;;;;;2.31;86.51;97409.79;137191;1276;22196;-83
2024/01/14 12:57:14;;;;;;;14.70;7.40;;;;;;;2.23;86.36;97403.98;136930;1275;22273;-83
2024/01/14 13:00:16;;;;;;;21.70;9.10;;;;;;;2.27;86.73;97403.88;136969;1276;22110;-84
2024/01/14 13:03:19;;;;;;;25.40;9.80;;;;;;;2.22;86.82;97413.39;137129;1275;22248;-83
2024/01/14 13:06:21;;;;;;;19.80;9.20;;;;;;;2.21;87.24;97412.34;136994;1276;22269;-82
2024/01/14 13:09:24;;;;;;;15.20;7.10;;;;;;;2.20;86.94;97417.29;137039;1276;22253;-82
2024/01/14 13:12:26;;;;;;;11.30;7.80;;;;;;;2.19;86.72;97409.55;136986;1260;23015;-81
2024/01/14 13:15:29;;;;;;;12.60;6.10;;;;;;;2.19;86.83;97409.20;137199;1276;22356;-82
2024/01/14 13:18:31;;;;;;;12.30;5.90;;;;;;;2.15;86.97;97404.14;137011;1275;22246;-83
2024/01/14 13:21:35;;;;;;;23.50;8.40;;;;;;;2.08;86.87;97404.33;137070;1275;22345;-83
2024/01/14 13:24:37;;;;;;;17.90;7.90;;;;;;;2.09;87.64;97402.80;137281;1275;22240;-82
2024/01/14 13:27:39;;;;;;;13.00;6.30;;;;;;;2.17;91.41;97406.05;137078;1276;22173;-85
2024/01/14 13:31:57;;;;;;;17.70;6.40;;;;;;;6.59;100.00;97399.35;131795;1305;544968;-85
2024/01/14 13:34:59;;;;;;;14.00;7.60;;;;;;;10.48;100.00;97388.37;134800;1289;22612;-81
2024/01/14 13:38:02;;;;;;;14.80;8.40;;;;;;;11.76;100.00;97394.83;134491;1289;22566;-84
2024/01/14 13:41:04;;;;;;;12.70;7.80;;;;;;;10.26;100.00;97398.42;134402;1289;22597;-80
2024/01/14 13:44:07;;;;;;;13.90;8.20;;;;;;;9.12;100.00;97400.81;134123;1286;159705;-84
2024/01/14 13:47:09;;;;;;;17.30;8.90;;;;;;;8.14;100.00;97399.73;134629;1286;22639;-84
2024/01/14 13:50:12;;;;;;;15.30;7.60;;;;;;;10.01;100.00;97393.83;134597;1287;23377;-85
2024/01/14 13:53:14;;;;;;;15.00;6.50;;;;;;;12.80;100.00;97392.79;134558;1286;22518;-85
2024/01/14 13:56:17;;;;;;;11.40;8.20;;;;;;;14.39;100.00;97389.03;134547;1278;23020;-84